Time;durP1;ratioP1;P1;durP2;ratioP2;P2;SDS_P1;SDS_P2;PMS_P1;PMS_P2;Temp;Humidity;BMP_temperature;BMP_pressure;BME280_temperature;BME280_humidity;BME280_pressure;Samples;Min_cycle;Max_cycle;Signal;HPM_P1;HPM_P2
2021/08/27 00:00:32;;;;;;;5.88;3.30;;;13.40;99.90;;;;;;2072179;28;20088;-71
2021/08/27 00:01:33;;;;;;;4.53;3.20;;;13.40;99.90;;;;;;2072134;28;20115;-71
2021/08/27 00:02:33;;;;;;;5.57;2.90;;;13.40;99.90;;;;;;2080980;28;20421;-73
2021/08/27 00:03:34;;;;;;;5.88;3.35;;;13.40;99.90;;;;;;2080871;28;20030;-73
2021/08/27 00:04:35;;;;;;;8.05;4.38;;;13.40;99.90;;;;;;2080621;28;20472;-73
2021/08/27 00:05:35;;;;;;;7.78;4.10;;;13.40;99.90;;;;;;2080782;28;20030;-72
2021/08/27 00:06:36;;;;;;;7.03;4.15;;;13.40;99.90;;;;;;2080840;28;20076;-72
2021/08/27 00:07:37;;;;;;;7.03;3.92;;;13.40;99.90;;;;;;2080769;28;20428;-72
2021/08/27 00:08:37;;;;;;;7.28;4.07;;;13.40;99.90;;;;;;2071796;28;20032;-72
2021/08/27 00:09:38;;;;;;;7.90;4.70;;;13.40;99.90;;;;;;2071458;28;20237;-72
2021/08/27 00:10:39;;;;;;;7.28;3.88;;;13.40;99.90;;;;;;2080842;28;20052;-72
2021/08/27 00:11:39;;;;;;;4.53;3.58;;;13.40;99.90;;;;;;2080733;28;20026;-71
2021/08/27 00:12:40;;;;;;;7.18;4.22;;;13.40;99.90;;;;;;2071962;28;20057;-72
2021/08/27 00:13:42;;;;;;;7.80;4.00;;;13.40;99.90;;;;;;2072038;28;20513;-72
2021/08/27 00:14:42;;;;;;;7.03;4.00;;;13.30;99.90;;;;;;2080783;28;20021;-72
2021/08/27 00:15:43;;;;;;;7.15;3.33;;;13.30;99.90;;;;;;2071983;28;20025;-72
2021/08/27 00:16:43;;;;;;;5.35;3.50;;;13.40;99.90;;;;;;2071882;28;20421;-72
2021/08/27 00:17:44;;;;;;;5.43;3.53;;;13.40;99.90;;;;;;2071795;28;20029;-71
2021/08/27 00:18:44;;;;;;;5.72;4.05;;;13.40;99.90;;;;;;2055518;28;20023;-71
2021/08/27 00:19:45;;;;;;;6.00;3.65;;;13.40;99.90;;;;;;2054852;28;20034;-71
2021/08/27 00:20:46;;;;;;;8.02;4.00;;;13.40;99.90;;;;;;2071648;28;20542;-71
2021/08/27 00:21:46;;;;;;;5.47;3.70;;;13.40;99.90;;;;;;2071906;28;20040;-71
2021/08/27 00:22:47;;;;;;;6.90;3.90;;;13.40;99.90;;;;;;2072156;28;20056;-71
2021/08/27 00:23:47;;;;;;;7.57;4.50;;;13.40;99.90;;;;;;2080826;28;20112;-71
2021/08/27 00:24:48;;;;;;;6.65;4.20;;;13.40;99.90;;;;;;2071859;28;20592;-71
2021/08/27 00:25:48;;;;;;;6.88;4.55;;;13.40;99.90;;;;;;2071626;28;20037;-72
2021/08/27 00:26:49;;;;;;;6.55;3.85;;;13.40;99.90;;;;;;2080160;28;20029;-71
2021/08/27 00:27:50;;;;;;;8.13;4.10;;;13.30;99.90;;;;;;2071718;28;20038;-71
2021/08/27 00:28:50;;;;;;;8.07;3.90;;;13.40;99.90;;;;;;2071716;28;20041;-71
2021/08/27 00:29:51;;;;;;;4.88;3.33;;;13.40;99.90;;;;;;2080257;28;20065;-71
2021/08/27 00:30:51;;;;;;;8.63;3.97;;;13.40;99.90;;;;;;2080584;28;20040;-71
2021/08/27 00:31:52;;;;;;;5.57;3.83;;;13.40;99.90;;;;;;2080573;28;20128;-71
2021/08/27 00:32:52;;;;;;;5.72;3.95;;;13.40;99.90;;;;;;2080603;28;20025;-71
2021/08/27 00:33:54;;;;;;;10.05;4.13;;;13.30;99.90;;;;;;2080530;28;20108;-71
2021/08/27 00:34:55;;;;;;;5.00;3.72;;;13.30;99.90;;;;;;2080593;28;20033;-71
2021/08/27 00:35:55;;;;;;;6.68;3.75;;;13.30;99.90;;;;;;2080481;28;20424;-71
2021/08/27 00:36:56;;;;;;;7.15;3.90;;;13.30;99.90;;;;;;2080592;28;20040;-72
2021/08/27 00:37:56;;;;;;;6.90;4.20;;;13.30;99.90;;;;;;2080439;28;20026;-71
2021/08/27 00:38:57;;;;;;;5.95;3.90;;;13.30;99.90;;;;;;2071506;28;20417;-71
2021/08/27 00:39:58;;;;;;;7.43;4.03;;;13.30;99.90;;;;;;2071361;28;20069;-71
2021/08/27 00:40:58;;;;;;;7.63;4.05;;;13.30;99.90;;;;;;2071835;28;20040;-71
2021/08/27 00:41:59;;;;;;;7.57;3.90;;;13.20;99.90;;;;;;2071913;28;20495;-72
2021/08/27 00:43:00;;;;;;;6.40;3.55;;;13.20;99.90;;;;;;2071905;28;20228;-71
2021/08/27 00:44:00;;;;;;;7.88;4.00;;;13.20;99.90;;;;;;2080699;28;20053;-71
2021/08/27 00:45:01;;;;;;;5.68;3.70;;;13.30;99.90;;;;;;2080604;28;20043;-71
2021/08/27 00:46:01;;;;;;;5.28;3.88;;;13.30;99.90;;;;;;2071735;28;20048;-71
2021/08/27 00:47:02;;;;;;;5.38;3.35;;;13.20;99.90;;;;;;2071803;28;20033;-73
2021/08/27 00:48:03;;;;;;;7.05;3.83;;;13.20;99.90;;;;;;2080677;28;20055;-73
2021/08/27 00:49:04;;;;;;;10.18;4.40;;;13.20;99.90;;;;;;2071615;28;20087;-71
2021/08/27 00:50:06;;;;;;;6.65;4.00;;;13.20;99.90;;;;;;2071459;28;20021;-70
2021/08/27 00:51:07;;;;;;;7.28;4.10;;;13.20;99.90;;;;;;2080425;28;20053;-69
2021/08/27 00:52:09;;;;;;;5.57;3.53;;;13.20;99.90;;;;;;2071948;28;20087;-70
2021/08/27 00:53:09;;;;;;;6.43;3.67;;;13.20;99.90;;;;;;2072043;28;20096;-69
2021/08/27 00:54:10;;;;;;;6.28;4.38;;;13.20;99.90;;;;;;2080543;28;20064;-70
2021/08/27 00:55:11;;;;;;;7.25;4.65;;;13.20;99.90;;;;;;2080613;28;20477;-69
2021/08/27 00:56:13;;;;;;;7.07;4.68;;;13.20;99.90;;;;;;2080559;28;20428;-69
2021/08/27 00:57:13;;;;;;;6.95;4.43;;;13.20;99.90;;;;;;2080665;28;20020;-69
2021/08/27 00:58:15;;;;;;;7.35;4.43;;;13.20;99.90;;;;;;2080478;28;20784;-71
2021/08/27 00:59:17;;;;;;;6.47;4.28;;;13.20;99.90;;;;;;2071772;28;20105;-69
2021/08/27 01:00:17;;;;;;;6.60;4.25;;;13.20;99.90;;;;;;2071424;28;20398;-70
2021/08/27 01:01:18;;;;;;;5.85;4.45;;;13.30;99.90;;;;;;2071806;28;20101;-69
2021/08/27 01:02:18;;;;;;;8.18;5.57;;;13.30;99.90;;;;;;2072096;28;20595;-70
2021/08/27 01:03:20;;;;;;;8.15;5.65;;;13.30;99.90;;;;;;2080754;28;20477;-70
2021/08/27 01:04:21;;;;;;;7.80;5.15;;;13.20;99.90;;;;;;2071858;28;20088;-71
2021/08/27 01:05:22;;;;;;;10.10;5.53;;;13.20;99.90;;;;;;2071720;28;20041;-70
2021/08/27 01:06:38;;;;;;;7.95;5.35;;;13.20;99.90;;;;;;2080712;28;20021;-72
2021/08/27 01:08:03;;;;;;;9.48;4.55;;;13.20;99.90;;;;;;2080562;28;20044;-70
2021/08/27 01:09:12;;;;;;;9.45;5.30;;;13.30;99.90;;;;;;2071551;28;20030;-71
2021/08/27 01:10:27;;;;;;;7.88;5.28;;;13.30;99.90;;;;;;2074037;28;20044;-71
2021/08/27 01:11:37;;;;;;;8.48;5.32;;;13.30;99.90;;;;;;2085119;28;20022;-73
2021/08/27 01:13:05;;;;;;;10.50;5.70;;;13.30;99.90;;;;;;2083230;28;20082;-70
2021/08/27 01:14:10;;;;;;;8.55;5.25;;;13.30;99.90;;;;;;2085328;28;20034;-70
2021/08/27 01:15:17;;;;;;;8.70;5.60;;;13.30;99.90;;;;;;2083056;28;20044;-71
2021/08/27 01:16:24;;;;;;;9.82;5.55;;;13.30;99.90;;;;;;2088484;28;20018;-69
2021/08/27 01:17:30;;;;;;;7.30;4.93;;;13.30;99.90;;;;;;2082916;28;20025;-73
2021/08/27 01:18:45;;;;;;;9.50;5.65;;;13.30;99.90;;;;;;2073500;28;20030;-72
2021/08/27 01:19:46;;;;;;;9.73;5.75;;;13.30;99.90;;;;;;2071944;28;20081;-69
2021/08/27 01:21:17;;;;;;;7.68;5.20;;;13.30;99.90;;;;;;2072506;28;20111;-69
2021/08/27 01:22:37;;;;;;;10.18;5.70;;;13.30;99.90;;;;;;2080874;28;20078;-69
2021/08/27 01:23:48;;;;;;;10.07;5.85;;;13.30;99.90;;;;;;2071977;28;20068;-70
2021/08/27 01:24:51;;;;;;;8.25;6.20;;;13.30;99.90;;;;;;2073356;28;20045;-70
2021/08/27 01:25:54;;;;;;;9.13;6.80;;;13.20;99.90;;;;;;2071874;28;20022;-71
2021/08/27 01:27:01;;;;;;;10.95;6.78;;;13.20;99.90;;;;;;2064129;28;20568;-71
2021/08/27 01:28:04;;;;;;;7.70;6.07;;;13.20;99.90;;;;;;2072737;28;20064;-70
2021/08/27 01:29:07;;;;;;;11.40;6.43;;;13.10;99.90;;;;;;2080479;28;20456;-69
2021/08/27 01:30:20;;;;;;;10.43;7.45;;;13.10;99.90;;;;;;2079934;28;20038;-69
2021/08/27 01:31:39;;;;;;;13.15;7.05;;;13.10;99.90;;;;;;2080381;28;20075;-69
2021/08/27 01:32:51;;;;;;;11.25;6.97;;;13.00;99.90;;;;;;2080406;28;20033;-71
2021/08/27 01:34:32;;;;;;;9.07;7.70;;;12.90;99.90;;;;;;2080176;28;20392;-69
2021/08/27 01:35:34;;;;;;;11.27;7.20;;;13.00;99.90;;;;;;2080341;28;20037;-71
2021/08/27 01:36:37;;;;;;;11.48;8.07;;;12.90;99.90;;;;;;2071609;28;20044;-70
2021/08/27 01:37:43;;;;;;;8.38;7.43;;;12.80;99.90;;;;;;2071942;28;20030;-69
2021/08/27 01:38:46;;;;;;;8.68;7.15;;;12.80;99.90;;;;;;2080145;28;20013;-69
2021/08/27 01:39:50;;;;;;;10.98;7.97;;;12.80;99.90;;;;;;2079794;28;20536;-74
2021/08/27 01:40:54;;;;;;;10.00;7.20;;;12.80;99.90;;;;;;2080251;28;20053;-70
2021/08/27 01:41:56;;;;;;;8.85;7.72;;;12.80;99.90;;;;;;2071581;28;20026;-71
2021/08/27 01:42:58;;;;;;;10.30;8.20;;;12.80;99.90;;;;;;2071889;28;20663;-69
2021/08/27 01:44:04;;;;;;;9.80;7.65;;;12.80;99.90;;;;;;2080337;28;20034;-69
2021/08/27 01:45:05;;;;;;;11.55;7.78;;;12.80;99.90;;;;;;2080469;28;20025;-70
2021/08/27 01:46:07;;;;;;;9.85;7.93;;;12.80;99.90;;;;;;2071526;28;20025;-73
2021/08/27 01:47:09;;;;;;;10.25;7.22;;;12.70;99.90;;;;;;2071858;28;20517;-71
2021/08/27 01:48:10;;;;;;;13.00;7.40;;;12.80;99.90;;;;;;2071607;28;20028;-69
2021/08/27 01:49:13;;;;;;;9.57;7.10;;;12.80;99.90;;;;;;2071513;28;20032;-69
2021/08/27 01:50:15;;;;;;;8.60;7.10;;;12.80;99.90;;;;;;2079913;28;20037;-70
2021/08/27 01:51:16;;;;;;;9.73;6.80;;;12.80;99.90;;;;;;2080352;28;20366;-70
2021/08/27 01:52:18;;;;;;;10.00;6.20;;;12.80;99.90;;;;;;2080391;28;20056;-69
2021/08/27 01:53:19;;;;;;;9.98;6.53;;;12.80;99.90;;;;;;2080368;28;20034;-69
2021/08/27 01:54:20;;;;;;;8.43;6.18;;;12.90;99.90;;;;;;2080218;28;20103;-70
2021/08/27 01:55:22;;;;;;;13.10;6.32;;;12.80;99.90;;;;;;2080127;28;20033;-71
2021/08/27 01:56:23;;;;;;;9.80;5.85;;;12.80;99.90;;;;;;2080184;28;20021;-71
2021/08/27 01:57:26;;;;;;;10.82;5.78;;;12.80;99.90;;;;;;2080306;28;20121;-70
2021/08/27 01:58:30;;;;;;;6.80;5.45;;;12.80;99.90;;;;;;2071527;28;20022;-70
2021/08/27 01:59:39;;;;;;;7.97;5.65;;;12.80;99.90;;;;;;2071206;28;20026;-71
2021/08/27 02:00:40;;;;;;;10.48;5.60;;;12.80;99.90;;;;;;2080308;28;20037;-70
2021/08/27 02:01:41;;;;;;;6.38;5.10;;;12.80;99.90;;;;;;2080292;28;20047;-69
2021/08/27 02:02:44;;;;;;;8.85;5.60;;;12.80;99.90;;;;;;2080262;28;20029;-69
2021/08/27 02:03:46;;;;;;;7.15;5.40;;;12.80;99.90;;;;;;2080238;28;20044;-70
2021/08/27 02:04:51;;;;;;;8.98;5.53;;;12.80;99.90;;;;;;2080153;28;20033;-69
2021/08/27 02:05:53;;;;;;;5.60;5.00;;;12.80;99.90;;;;;;2080259;28;20053;-69
2021/08/27 02:06:54;;;;;;;6.63;5.15;;;12.80;99.90;;;;;;2080256;28;20025;-70
2021/08/27 02:07:57;;;;;;;6.20;4.57;;;12.80;99.90;;;;;;2080265;28;20072;-71
2021/08/27 02:08:58;;;;;;;6.05;4.57;;;12.80;99.90;;;;;;2079621;28;20041;-70
2021/08/27 02:10:00;;;;;;;5.85;5.05;;;12.80;99.90;;;;;;2079700;28;20128;-69
2021/08/27 02:11:01;;;;;;;7.43;4.90;;;12.80;99.90;;;;;;2080063;28;20334;-70
2021/08/27 02:12:04;;;;;;;6.55;4.68;;;12.80;99.90;;;;;;2071569;28;20136;-70
2021/08/27 02:13:05;;;;;;;6.35;4.65;;;12.80;99.90;;;;;;2073360;28;20018;-70
2021/08/27 02:14:07;;;;;;;6.20;4.80;;;12.80;99.90;;;;;;2081752;28;20030;-69
2021/08/27 02:15:08;;;;;;;10.35;4.40;;;12.80;99.90;;;;;;2081739;28;20025;-69
2021/08/27 02:16:09;;;;;;;6.90;4.82;;;12.80;99.90;;;;;;2081797;28;20460;-70
2021/08/27 02:17:10;;;;;;;5.30;4.20;;;12.80;99.90;;;;;;2081807;28;20029;-69
2021/08/27 02:18:11;;;;;;;5.22;4.22;;;12.80;99.90;;;;;;2081758;28;20473;-70
2021/08/27 02:19:11;;;;;;;8.75;5.10;;;12.80;99.90;;;;;;2081645;28;20112;-70
2021/08/27 02:20:12;;;;;;;7.28;4.43;;;12.80;99.90;;;;;;2081306;28;20080;-71
2021/08/27 02:21:15;;;;;;;7.50;4.60;;;12.80;99.90;;;;;;2081772;28;20053;-71
2021/08/27 02:22:17;;;;;;;7.35;5.05;;;12.80;99.90;;;;;;2081856;28;20112;-72
2021/08/27 02:23:19;;;;;;;6.97;5.20;;;12.80;99.90;;;;;;2082155;28;20022;-71
2021/08/27 02:24:30;;;;;;;7.95;5.30;;;12.80;99.90;;;;;;2081849;28;20057;-72
2021/08/27 02:25:33;;;;;;;6.43;4.43;;;12.80;99.90;;;;;;2081986;28;20099;-71
2021/08/27 02:26:36;;;;;;;6.40;4.57;;;12.80;99.90;;;;;;2082001;28;20033;-71
2021/08/27 02:27:39;;;;;;;8.07;5.25;;;12.80;99.90;;;;;;2081908;28;20033;-71
2021/08/27 02:28:42;;;;;;;8.98;5.35;;;12.80;99.90;;;;;;2081843;28;20033;-71
2021/08/27 02:29:45;;;;;;;9.48;5.63;;;12.80;99.90;;;;;;2081215;28;20053;-71
2021/08/27 02:30:47;;;;;;;9.02;5.50;;;12.90;99.90;;;;;;2081472;28;20456;-71
2021/08/27 02:31:59;;;;;;;6.60;4.97;;;12.80;99.90;;;;;;2072752;28;20026;-70
2021/08/27 02:33:03;;;;;;;7.20;5.15;;;12.80;99.90;;;;;;2072845;28;20041;-71
2021/08/27 02:34:05;;;;;;;8.05;5.03;;;12.80;99.90;;;;;;2065174;28;20042;-71
2021/08/27 02:35:07;;;;;;;6.95;5.00;;;12.80;99.90;;;;;;2072900;28;20576;-71
2021/08/27 02:36:11;;;;;;;8.23;5.78;;;12.80;99.90;;;;;;2072691;28;20036;-73
2021/08/27 02:37:16;;;;;;;6.03;4.97;;;12.80;99.90;;;;;;2073993;28;20390;-73
2021/08/27 02:38:21;;;;;;;8.77;5.75;;;12.80;99.90;;;;;;2081570;28;20026;-74
2021/08/27 02:39:24;;;;;;;7.63;5.68;;;12.80;99.90;;;;;;2081409;28;20033;-71
2021/08/27 02:40:25;;;;;;;9.50;6.13;;;12.80;99.90;;;;;;2081110;28;20036;-73
2021/08/27 02:41:25;;;;;;;8.27;6.20;;;12.90;99.90;;;;;;2072697;28;20026;-72
2021/08/27 02:42:27;;;;;;;8.45;5.72;;;12.90;99.90;;;;;;2072803;28;20069;-72
2021/08/27 02:43:28;;;;;;;6.97;5.72;;;12.80;99.90;;;;;;2081579;28;20037;-72
2021/08/27 02:44:29;;;;;;;8.23;6.00;;;12.80;99.90;;;;;;2081533;28;20026;-73
2021/08/27 02:45:29;;;;;;;6.32;5.07;;;12.80;99.90;;;;;;2072689;28;20088;-73
2021/08/27 02:46:30;;;;;;;7.68;5.85;;;12.90;99.90;;;;;;2072919;28;20040;-72
2021/08/27 02:47:31;;;;;;;7.90;5.70;;;12.80;99.90;;;;;;2072849;28;20029;-73
2021/08/27 02:48:33;;;;;;;6.47;5.50;;;12.80;99.90;;;;;;2081395;28;20029;-72
2021/08/27 02:49:35;;;;;;;6.00;4.68;;;12.90;99.90;;;;;;2080804;28;20021;-72
2021/08/27 02:50:44;;;;;;;8.23;5.72;;;12.80;99.90;;;;;;2081977;28;20026;-72
2021/08/27 02:52:07;;;;;;;7.30;6.13;;;12.90;99.90;;;;;;2081408;28;20057;-73
2021/08/27 02:53:13;;;;;;;10.23;5.45;;;12.90;99.90;;;;;;2081236;28;20029;-70
2021/08/27 02:54:17;;;;;;;10.15;5.97;;;12.90;99.90;;;;;;2072697;28;20029;-72
2021/08/27 02:55:24;;;;;;;7.82;5.90;;;12.90;99.90;;;;;;2072754;28;20029;-73
2021/08/27 02:56:34;;;;;;;11.07;6.00;;;12.90;99.90;;;;;;2073626;28;20034;-73
2021/08/27 02:57:40;;;;;;;9.48;5.50;;;12.90;99.90;;;;;;2064597;28;20034;-73
2021/08/27 02:58:40;;;;;;;7.65;5.97;;;12.90;99.90;;;;;;2064941;28;20133;-72
2021/08/27 02:59:42;;;;;;;7.00;4.85;;;12.90;99.90;;;;;;2072279;28;20045;-73
2021/08/27 03:01:00;;;;;;;6.45;4.90;;;12.90;99.90;;;;;;2072646;28;20026;-72
2021/08/27 03:02:03;;;;;;;7.97;5.70;;;12.90;99.90;;;;;;2075236;28;20037;-71
2021/08/27 03:03:05;;;;;;;9.65;5.97;;;12.90;99.90;;;;;;2072931;28;20608;-72
2021/08/27 03:04:27;;;;;;;8.68;6.30;;;12.90;99.90;;;;;;2072625;28;20033;-73
2021/08/27 03:05:34;;;;;;;7.53;6.05;;;12.90;99.90;;;;;;2081454;28;20043;-72
2021/08/27 03:07:08;;;;;;;9.02;6.03;;;12.80;99.90;;;;;;2081574;28;20036;-71
2021/08/27 03:08:15;;;;;;;8.57;6.60;;;12.80;99.90;;;;;;2059701;28;20042;-73
2021/08/27 03:09:17;;;;;;;9.20;6.30;;;12.90;99.90;;;;;;2073991;28;20447;-73
2021/08/27 03:10:44;;;;;;;8.68;6.28;;;12.80;99.90;;;;;;2080914;28;20061;-73
2021/08/27 03:11:57;;;;;;;9.80;6.38;;;12.80;99.90;;;;;;2080605;28;20393;-73
2021/08/27 03:13:11;;;;;;;9.65;6.32;;;12.80;99.90;;;;;;2064880;28;20034;-71
2021/08/27 03:14:19;;;;;;;9.05;6.43;;;12.80;99.90;;;;;;2068090;28;20066;-71
2021/08/27 03:15:47;;;;;;;9.27;6.30;;;12.80;99.90;;;;;;2072607;28;20030;-70
2021/08/27 03:16:50;;;;;;;6.68;5.97;;;12.80;99.90;;;;;;2076580;28;20025;-71
2021/08/27 03:17:52;;;;;;;8.02;5.88;;;12.90;99.90;;;;;;2081265;28;20756;-71
2021/08/27 03:19:02;;;;;;;7.88;6.30;;;12.80;99.90;;;;;;2081090;28;20099;-71
2021/08/27 03:20:08;;;;;;;7.43;6.13;;;12.80;99.90;;;;;;2080809;28;20021;-71
2021/08/27 03:21:18;;;;;;;7.80;6.28;;;12.80;99.90;;;;;;2081215;28;20485;-71
2021/08/27 03:22:23;;;;;;;7.05;6.03;;;12.80;99.90;;;;;;2072348;28;20049;-71
2021/08/27 03:23:27;;;;;;;6.38;5.47;;;12.80;99.90;;;;;;2072804;28;20053;-71
2021/08/27 03:24:38;;;;;;;7.05;5.25;;;12.80;99.90;;;;;;2081171;28;20061;-71
2021/08/27 03:25:42;;;;;;;7.13;5.68;;;12.80;99.90;;;;;;2081287;28;20053;-71
2021/08/27 03:26:46;;;;;;;6.22;5.55;;;12.80;99.90;;;;;;2081212;28;20456;-71
2021/08/27 03:27:50;;;;;;;7.47;6.28;;;12.80;99.90;;;;;;2064323;28;20471;-71
2021/08/27 03:28:57;;;;;;;8.60;6.50;;;12.70;99.90;;;;;;2064608;28;20045;-71
2021/08/27 03:30:02;;;;;;;7.57;6.10;;;12.70;99.90;;;;;;2080722;28;20440;-71
2021/08/27 03:31:04;;;;;;;6.10;5.50;;;12.60;99.90;;;;;;2081176;28;20033;-71
2021/08/27 03:32:06;;;;;;;7.20;5.53;;;12.70;99.90;;;;;;2081100;28;20378;-71
2021/08/27 03:33:11;;;;;;;8.05;6.00;;;12.70;99.90;;;;;;2072370;28;20034;-71
2021/08/27 03:34:13;;;;;;;8.70;6.85;;;12.70;99.90;;;;;;2072979;28;20029;-71
2021/08/27 03:35:16;;;;;;;7.75;6.00;;;12.70;99.90;;;;;;2072233;28;20363;-71
2021/08/27 03:36:17;;;;;;;7.60;6.70;;;12.60;99.90;;;;;;2072784;28;20032;-71
2021/08/27 03:37:20;;;;;;;8.10;6.20;;;12.70;99.90;;;;;;2072412;28;20030;-71
2021/08/27 03:38:24;;;;;;;6.55;5.90;;;12.70;99.90;;;;;;2072662;28;20026;-71
2021/08/27 03:39:26;;;;;;;7.28;6.25;;;12.70;99.90;;;;;;2080757;28;20477;-72
2021/08/27 03:40:29;;;;;;;6.82;5.68;;;12.70;99.90;;;;;;2071888;28;20065;-72
2021/08/27 03:41:34;;;;;;;7.05;6.03;;;12.70;99.90;;;;;;2072474;28;20026;-72
2021/08/27 03:42:36;;;;;;;7.82;6.40;;;12.70;99.90;;;;;;2081123;28;20021;-72
2021/08/27 03:43:40;;;;;;;7.45;6.00;;;12.70;99.90;;;;;;2081080;28;20040;-71
2021/08/27 03:44:42;;;;;;;6.18;5.50;;;12.70;99.90;;;;;;2081198;28;20048;-71
2021/08/27 03:45:43;;;;;;;6.13;5.20;;;12.70;99.90;;;;;;2081258;28;20130;-71
2021/08/27 03:46:44;;;;;;;6.18;5.22;;;12.80;99.90;;;;;;2080865;28;20037;-71
2021/08/27 03:47:45;;;;;;;8.68;5.88;;;12.80;99.90;;;;;;2081251;28;20049;-71
2021/08/27 03:48:47;;;;;;;7.07;5.90;;;12.80;99.90;;;;;;2080979;28;20029;-71
2021/08/27 03:49:48;;;;;;;5.63;5.10;;;12.80;99.90;;;;;;2080738;28;21188;-71
2021/08/27 03:50:54;;;;;;;6.78;5.80;;;12.80;99.90;;;;;;2071807;28;20018;-71
2021/08/27 03:51:56;;;;;;;6.80;5.97;;;12.80;99.90;;;;;;2072152;28;20030;-71
2021/08/27 03:52:58;;;;;;;7.28;6.22;;;12.80;99.90;;;;;;2064185;28;20038;-71
2021/08/27 03:53:59;;;;;;;6.40;5.78;;;12.80;99.90;;;;;;2072065;28;20053;-71
2021/08/27 03:55:01;;;;;;;5.88;5.28;;;12.80;99.90;;;;;;2072217;28;20679;-71
2021/08/27 03:56:02;;;;;;;6.50;5.55;;;12.80;99.90;;;;;;2072277;28;20033;-71
2021/08/27 03:57:04;;;;;;;10.18;6.75;;;12.90;99.90;;;;;;2072320;28;20560;-72
2021/08/27 03:58:05;;;;;;;7.68;6.70;;;12.90;99.90;;;;;;2080940;28;20026;-71
2021/08/27 03:59:05;;;;;;;7.70;6.63;;;12.80;99.90;;;;;;2071649;28;20033;-71
2021/08/27 04:00:07;;;;;;;8.23;7.30;;;12.80;99.90;;;;;;2071750;28;20182;-72
2021/08/27 04:01:13;;;;;;;8.52;7.22;;;12.80;99.90;;;;;;2080893;28;20509;-71
2021/08/27 04:02:14;;;;;;;9.15;7.90;;;12.80;99.90;;;;;;2080975;28;20305;-72
2021/08/27 04:03:15;;;;;;;9.80;8.80;;;12.80;99.90;;;;;;2080988;28;20057;-71
2021/08/27 04:04:20;;;;;;;9.00;8.10;;;12.80;99.90;;;;;;2081068;28;20026;-71
2021/08/27 04:05:22;;;;;;;9.30;8.40;;;12.80;99.90;;;;;;2080988;28;20164;-71
2021/08/27 04:06:23;;;;;;;11.65;9.18;;;12.80;99.90;;;;;;2080773;28;20037;-72
2021/08/27 04:07:23;;;;;;;11.32;9.32;;;12.80;99.90;;;;;;2081011;28;20057;-71
2021/08/27 04:08:24;;;;;;;11.13;9.50;;;12.80;99.90;;;;;;2080819;28;20160;-73
2021/08/27 04:09:27;;;;;;;11.27;8.98;;;12.80;99.90;;;;;;2080505;28;20473;-71
2021/08/27 04:10:27;;;;;;;9.23;7.68;;;12.80;99.90;;;;;;2080307;28;20064;-71
2021/08/27 04:11:28;;;;;;;9.52;7.88;;;12.80;99.90;;;;;;2080871;28;20040;-71
2021/08/27 04:12:28;;;;;;;8.60;7.75;;;12.80;99.90;;;;;;2080835;28;20025;-70
2021/08/27 04:13:29;;;;;;;10.45;9.45;;;12.80;99.90;;;;;;2080912;28;20044;-70
2021/08/27 04:14:30;;;;;;;11.98;9.45;;;12.80;99.90;;;;;;2080899;28;20079;-70
2021/08/27 04:15:30;;;;;;;10.30;9.18;;;12.80;99.90;;;;;;2080760;28;20140;-70
2021/08/27 04:16:31;;;;;;;11.57;10.07;;;12.90;99.90;;;;;;2080899;28;20040;-70
2021/08/27 04:17:31;;;;;;;11.98;10.38;;;12.90;99.90;;;;;;2080921;28;20117;-70
2021/08/27 04:18:32;;;;;;;10.93;9.82;;;12.80;99.90;;;;;;2080790;28;20029;-70
2021/08/27 04:19:35;;;;;;;10.02;9.02;;;12.90;99.90;;;;;;2080134;28;20033;-70
2021/08/27 04:20:36;;;;;;;13.60;10.73;;;12.90;99.90;;;;;;2071993;28;20037;-70
2021/08/27 04:21:36;;;;;;;15.90;11.40;;;12.90;99.90;;;;;;2071990;28;20101;-70
2021/08/27 04:22:37;;;;;;;11.27;9.57;;;12.90;99.90;;;;;;2080743;28;20057;-70
2021/08/27 04:23:38;;;;;;;10.70;9.60;;;12.90;99.90;;;;;;2080768;28;20112;-70
2021/08/27 04:24:38;;;;;;;11.25;10.18;;;12.90;99.90;;;;;;2080545;28;20029;-70
2021/08/27 04:25:39;;;;;;;14.55;11.88;;;12.90;99.90;;;;;;2080653;28;20036;-70
2021/08/27 04:26:40;;;;;;;13.77;11.48;;;12.90;99.90;;;;;;2080762;28;20736;-70
2021/08/27 04:27:40;;;;;;;12.55;11.20;;;12.90;99.90;;;;;;2072013;28;20113;-69
2021/08/27 04:28:41;;;;;;;11.45;10.15;;;12.90;99.90;;;;;;2071585;28;20054;-69
2021/08/27 04:29:41;;;;;;;10.98;9.82;;;12.90;99.90;;;;;;2071526;28;20826;-69
2021/08/27 04:30:42;;;;;;;12.35;10.02;;;13.00;99.90;;;;;;2071787;28;20666;-69
2021/08/27 04:31:43;;;;;;;10.90;9.80;;;13.00;99.90;;;;;;2063723;28;20429;-69
2021/08/27 04:32:43;;;;;;;10.95;9.32;;;12.90;99.90;;;;;;2071936;28;20026;-69
2021/08/27 04:33:44;;;;;;;12.90;11.30;;;13.00;99.90;;;;;;2080549;28;20076;-70
2021/08/27 04:34:45;;;;;;;11.27;10.18;;;13.00;99.90;;;;;;2080382;28;20056;-70
2021/08/27 04:35:45;;;;;;;11.18;10.02;;;13.00;99.90;;;;;;2080344;28;20034;-70
2021/08/27 04:36:46;;;;;;;11.05;10.02;;;13.00;99.90;;;;;;2080604;28;20025;-69
2021/08/27 04:37:47;;;;;;;10.73;9.60;;;13.00;99.90;;;;;;2080465;28;20025;-70
2021/08/27 04:38:48;;;;;;;10.07;9.07;;;13.00;99.90;;;;;;2080299;28;20523;-70
2021/08/27 04:39:49;;;;;;;11.27;10.18;;;13.00;99.90;;;;;;2080288;28;20615;-70
2021/08/27 04:40:49;;;;;;;11.10;9.48;;;13.00;99.90;;;;;;2080531;28;20079;-70
2021/08/27 04:41:50;;;;;;;10.98;9.88;;;13.00;99.90;;;;;;2080670;28;20029;-70
2021/08/27 04:42:51;;;;;;;12.20;10.80;;;13.00;99.90;;;;;;2080533;28;20029;-70
2021/08/27 04:43:51;;;;;;;12.73;11.40;;;13.00;99.90;;;;;;2080680;28;20044;-70
2021/08/27 04:44:52;;;;;;;10.50;9.48;;;13.00;99.90;;;;;;2080736;28;20536;-70
2021/08/27 04:45:52;;;;;;;11.90;9.75;;;12.90;99.90;;;;;;2080627;28;20366;-69
2021/08/27 04:46:53;;;;;;;10.07;9.07;;;12.90;99.90;;;;;;2080573;28;20037;-69
2021/08/27 04:47:54;;;;;;;10.85;9.25;;;12.90;99.90;;;;;;2071818;28;20022;-69
2021/08/27 04:48:54;;;;;;;10.57;8.73;;;13.00;99.90;;;;;;2071576;28;20022;-70
2021/08/27 04:49:55;;;;;;;9.75;8.75;;;12.90;99.90;;;;;;2080028;28;20026;-69
2021/08/27 04:51:18;;;;;;;9.10;8.20;;;12.90;99.90;;;;;;2080437;28;20029;-69
2021/08/27 04:52:19;;;;;;;8.35;7.53;;;12.90;99.90;;;;;;2071784;28;20058;-69
2021/08/27 04:53:20;;;;;;;9.25;8.35;;;12.90;99.90;;;;;;2071961;28;20026;-69
2021/08/27 04:54:20;;;;;;;8.00;7.25;;;12.90;99.90;;;;;;2080479;28;20151;-70
2021/08/27 04:55:21;;;;;;;8.90;8.00;;;12.90;99.90;;;;;;2080592;28;20030;-70
2021/08/27 04:56:21;;;;;;;8.48;7.28;;;13.00;99.90;;;;;;2071805;28;20030;-70
2021/08/27 04:57:23;;;;;;;7.43;6.72;;;13.00;99.90;;;;;;2071783;28;20153;-70
2021/08/27 04:58:25;;;;;;;7.65;6.95;;;13.00;99.90;;;;;;2079991;28;20126;-70
2021/08/27 04:59:26;;;;;;;7.50;6.80;;;13.00;99.90;;;;;;2079636;28;20018;-70
2021/08/27 05:00:27;;;;;;;8.65;7.85;;;13.10;99.90;;;;;;2080224;28;20813;-70
2021/08/27 05:01:27;;;;;;;8.63;7.70;;;13.10;99.90;;;;;;2080400;28;20037;-70
2021/08/27 05:02:28;;;;;;;7.68;6.57;;;13.10;99.90;;;;;;2080827;28;20458;-70
2021/08/27 05:03:28;;;;;;;9.55;8.48;;;13.10;99.90;;;;;;2081055;28;20108;-70
2021/08/27 05:04:29;;;;;;;10.23;9.23;;;13.10;99.90;;;;;;2080420;28;20037;-70
2021/08/27 05:05:30;;;;;;;11.20;9.35;;;13.10;99.90;;;;;;2080565;28;20033;-70
2021/08/27 05:06:30;;;;;;;10.20;9.18;;;13.10;99.90;;;;;;2080766;28;20025;-70
2021/08/27 05:07:31;;;;;;;11.05;8.85;;;13.10;99.90;;;;;;2071810;28;20569;-69
2021/08/27 05:08:32;;;;;;;9.60;8.68;;;13.10;99.90;;;;;;2071708;28;20040;-70
2021/08/27 05:09:32;;;;;;;9.27;7.90;;;13.20;99.90;;;;;;2071087;28;20037;-70
2021/08/27 05:10:33;;;;;;;9.80;8.80;;;13.20;99.90;;;;;;2080654;28;20032;-70
2021/08/27 05:11:34;;;;;;;9.95;8.95;;;13.20;99.90;;;;;;2080343;28;20082;-69
2021/08/27 05:12:35;;;;;;;8.85;8.05;;;13.20;99.90;;;;;;2080615;28;20556;-70
2021/08/27 05:13:36;;;;;;;10.07;9.05;;;13.30;99.90;;;;;;2080487;28;20497;-70
2021/08/27 05:14:36;;;;;;;11.20;8.93;;;13.30;99.90;;;;;;2080565;28;20032;-70
2021/08/27 05:15:37;;;;;;;9.65;8.50;;;13.30;99.90;;;;;;2071477;28;20030;-70
2021/08/27 05:16:38;;;;;;;9.80;8.38;;;13.40;99.90;;;;;;2071781;28;20500;-69
2021/08/27 05:17:40;;;;;;;10.82;8.50;;;13.40;99.90;;;;;;2080434;28;20604;-70
2021/08/27 05:18:40;;;;;;;9.57;8.25;;;13.40;99.90;;;;;;2080184;28;20026;-70
2021/08/27 05:19:41;;;;;;;9.52;8.50;;;13.50;99.90;;;;;;2079868;28;20039;-70
2021/08/27 05:20:41;;;;;;;9.95;8.43;;;13.40;99.90;;;;;;2080397;28;20033;-69
2021/08/27 05:21:42;;;;;;;8.90;8.00;;;13.40;99.90;;;;;;2080306;28;20040;-70
2021/08/27 05:22:42;;;;;;;10.93;8.27;;;13.40;99.90;;;;;;2071625;28;20092;-70
2021/08/27 05:23:43;;;;;;;8.40;7.60;;;13.50;99.90;;;;;;2071837;28;20484;-70
2021/08/27 05:24:44;;;;;;;10.90;8.95;;;13.50;99.90;;;;;;2080315;28;20021;-71
2021/08/27 05:25:45;;;;;;;9.68;8.23;;;13.50;99.90;;;;;;2080596;28;20029;-71
2021/08/27 05:26:45;;;;;;;9.27;8.05;;;13.50;99.90;;;;;;2071647;28;20088;-71
2021/08/27 05:27:49;;;;;;;8.88;7.55;;;13.50;99.90;;;;;;2071581;28;20049;-71